sensor_id;sensor_type;location;lat;lon;timestamp;pressure;altitude;pressure_sealevel;temperature;humidity
12182;BME280;6154;51.550;12.138;2022-10-01T00:02:27;100033.34;;;13.30;54.13
12182;BME280;6154;51.550;12.138;2022-10-01T00:04:55;100036.13;;;13.28;54.08
12182;BME280;6154;51.550;12.138;2022-10-01T00:07:23;100033.81;;;13.23;54.16
12182;BME280;6154;51.550;12.138;2022-10-01T00:09:51;100031.56;;;13.17;54.10
12182;BME280;6154;51.550;12.138;2022-10-01T00:12:20;100023.81;;;13.14;53.78
12182;BME280;6154;51.550;12.138;2022-10-01T00:14:48;100024.88;;;13.12;54.12
12182;BME280;6154;51.550;12.138;2022-10-01T00:17:17;100025.94;;;13.09;54.25
12182;BME280;6154;51.550;12.138;2022-10-01T00:19:46;100018.09;;;13.08;53.83
12182;BME280;6154;51.550;12.138;2022-10-01T00:22:14;100020.97;;;13.05;53.67
12182;BME280;6154;51.550;12.138;2022-10-01T00:24:45;100012.88;;;13.06;53.86
12182;BME280;6154;51.550;12.138;2022-10-01T00:27:13;100011.94;;;13.07;54.10
12182;BME280;6154;51.550;12.138;2022-10-01T00:29:41;100013.50;;;13.10;53.94
12182;BME280;6154;51.550;12.138;2022-10-01T00:32:11;100017.13;;;13.09;54.04
12182;BME280;6154;51.550;12.138;2022-10-01T00:34:39;100006.37;;;13.10;54.23
12182;BME280;6154;51.550;12.138;2022-10-01T00:37:08;100006.37;;;13.10;54.10
12182;BME280;6154;51.550;12.138;2022-10-01T00:39:37;100008.91;;;13.12;53.80
12182;BME280;6154;51.550;12.138;2022-10-01T00:42:15;100007.88;;;13.14;54.17
12182;BME280;6154;51.550;12.138;2022-10-01T00:44:44;100007.75;;;13.16;54.30
12182;BME280;6154;51.550;12.138;2022-10-01T00:47:20;100006.19;;;13.13;53.81
12182;BME280;6154;51.550;12.138;2022-10-01T00:49:53;100006.91;;;13.15;54.31
12182;BME280;6154;51.550;12.138;2022-10-01T00:52:29;100000.75;;;13.15;54.05
12182;BME280;6154;51.550;12.138;2022-10-01T00:55:01;99994.72;;;13.13;54.18
12182;BME280;6154;51.550;12.138;2022-10-01T00:57:31;100001.78;;;13.12;54.02
12182;BME280;6154;51.550;12.138;2022-10-01T01:00:03;99994.06;;;13.09;54.07
12182;BME280;6154;51.550;12.138;2022-10-01T01:02:32;99989.94;;;13.05;53.79
12182;BME280;6154;51.550;12.138;2022-10-01T01:05:01;99989.41;;;13.00;54.13
12182;BME280;6154;51.550;12.138;2022-10-01T01:07:32;99994.22;;;12.95;54.17
12182;BME280;6154;51.550;12.138;2022-10-01T01:10:02;99990.06;;;12.91;54.09
12182;BME280;6154;51.550;12.138;2022-10-01T01:12:50;99984.88;;;12.89;54.24
12182;BME280;6154;51.550;12.138;2022-10-01T01:15:26;99979.69;;;12.88;54.55
12182;BME280;6154;51.550;12.138;2022-10-01T01:18:01;99973.75;;;12.84;54.59
12182;BME280;6154;51.550;12.138;2022-10-01T01:20:54;99985.22;;;12.85;54.47
12182;BME280;6154;51.550;12.138;2022-10-01T01:23:46;99980.53;;;12.88;55.29
12182;BME280;6154;51.550;12.138;2022-10-01T01:26:26;99978.81;;;12.87;55.09
12182;BME280;6154;51.550;12.138;2022-10-01T01:29:03;99967.47;;;12.85;55.03
12182;BME280;6154;51.550;12.138;2022-10-01T01:31:36;99969.28;;;12.85;54.87
12182;BME280;6154;51.550;12.138;2022-10-01T01:34:09;99965.91;;;12.83;54.78
12182;BME280;6154;51.550;12.138;2022-10-01T01:36:43;99958.84;;;12.82;54.80
12182;BME280;6154;51.550;12.138;2022-10-01T01:39:14;99960.66;;;12.81;54.60
12182;BME280;6154;51.550;12.138;2022-10-01T01:41:48;99953.53;;;12.82;54.65
12182;BME280;6154;51.550;12.138;2022-10-01T01:44:22;99955.28;;;12.83;54.78
12182;BME280;6154;51.550;12.138;2022-10-01T01:46:53;99951.66;;;12.84;55.06
12182;BME280;6154;51.550;12.138;2022-10-01T01:49:23;99957.81;;;12.84;54.71
12182;BME280;6154;51.550;12.138;2022-10-01T01:51:55;99951.53;;;12.85;54.74
12182;BME280;6154;51.550;12.138;2022-10-01T01:54:25;99945.25;;;12.86;54.93
12182;BME280;6154;51.550;12.138;2022-10-01T01:56:56;99948.66;;;12.88;54.69
12182;BME280;6154;51.550;12.138;2022-10-01T01:59:27;99945.03;;;12.89;54.81
12182;BME280;6154;51.550;12.138;2022-10-01T02:01:55;99942.25;;;12.91;54.77
12182;BME280;6154;51.550;12.138;2022-10-01T02:04:27;99935.06;;;12.93;54.78
12182;BME280;6154;51.550;12.138;2022-10-01T02:07:10;99932.28;;;12.94;54.58
12182;BME280;6154;51.550;12.138;2022-10-01T02:09:49;99933.13;;;12.95;55.68
12182;BME280;6154;51.550;12.138;2022-10-01T02:12:28;99929.62;;;12.94;55.97
12182;BME280;6154;51.550;12.138;2022-10-01T02:15:07;99933.97;;;12.95;56.13
12182;BME280;6154;51.550;12.138;2022-10-01T02:17:45;99929.75;;;12.93;57.17
12182;BME280;6154;51.550;12.138;2022-10-01T02:20:20;99934.28;;;13.04;56.71
12182;BME280;6154;51.550;12.138;2022-10-01T02:22:57;99922.09;;;13.12;56.88
12182;BME280;6154;51.550;12.138;2022-10-01T02:25:30;99924.09;;;13.21;56.91
12182;BME280;6154;51.550;12.138;2022-10-01T02:28:03;99924.37;;;13.30;56.61
12182;BME280;6154;51.550;12.138;2022-10-01T02:30:35;99926.72;;;13.34;56.71
12182;BME280;6154;51.550;12.138;2022-10-01T02:33:06;99928.06;;;13.40;56.78
12182;BME280;6154;51.550;12.138;2022-10-01T02:35:36;99915.03;;;13.48;56.69
12182;BME280;6154;51.550;12.138;2022-10-01T02:38:06;99924.47;;;13.52;56.30
12182;BME280;6154;51.550;12.138;2022-10-01T02:40:37;99917.97;;;13.56;56.06
12182;BME280;6154;51.550;12.138;2022-10-01T02:43:11;99923.31;;;13.56;56.44
12182;BME280;6154;51.550;12.138;2022-10-01T02:45:42;99921.38;;;13.58;56.29
12182;BME280;6154;51.550;12.138;2022-10-01T02:48:13;99924.75;;;13.60;56.13
12182;BME280;6154;51.550;12.138;2022-10-01T02:50:47;99914.12;;;13.60;56.66
12182;BME280;6154;51.550;12.138;2022-10-01T02:53:20;99899.63;;;13.64;57.14
12182;BME280;6154;51.550;12.138;2022-10-01T02:55:49;99906.88;;;13.62;58.45
12182;BME280;6154;51.550;12.138;2022-10-01T02:58:19;99900.13;;;13.69;57.31
12182;BME280;6154;51.550;12.138;2022-10-01T03:00:48;99898.09;;;13.73;58.08
12182;BME280;6154;51.550;12.138;2022-10-01T03:03:16;99893.13;;;13.79;58.12
12182;BME280;6154;51.550;12.138;2022-10-01T03:05:44;99884.81;;;13.84;57.35
12182;BME280;6154;51.550;12.138;2022-10-01T03:08:12;99884.56;;;13.87;57.30
12182;BME280;6154;51.550;12.138;2022-10-01T03:10:40;99889.28;;;13.84;58.21
12182;BME280;6154;51.550;12.138;2022-10-01T03:13:12;99886.00;;;13.91;57.83
12182;BME280;6154;51.550;12.138;2022-10-01T03:15:41;99886.84;;;13.92;57.81
12182;BME280;6154;51.550;12.138;2022-10-01T03:18:10;99881.31;;;13.95;57.83
12182;BME280;6154;51.550;12.138;2022-10-01T03:20:38;99871.53;;;13.95;57.54
12182;BME280;6154;51.550;12.138;2022-10-01T03:23:06;99872.59;;;13.93;57.64
12182;BME280;6154;51.550;12.138;2022-10-01T03:25:34;99873.81;;;14.00;57.41
12182;BME280;6154;51.550;12.138;2022-10-01T03:28:03;99867.31;;;14.04;57.17
12182;BME280;6154;51.550;12.138;2022-10-01T03:30:31;99861.00;;;14.05;57.14
12182;BME280;6154;51.550;12.138;2022-10-01T03:33:00;99862.69;;;14.06;57.57
12182;BME280;6154;51.550;12.138;2022-10-01T03:35:29;99863.53;;;14.06;57.22
12182;BME280;6154;51.550;12.138;2022-10-01T03:37:58;99862.44;;;14.09;56.97
12182;BME280;6154;51.550;12.138;2022-10-01T03:40:26;99858.81;;;14.10;56.75
12182;BME280;6154;51.550;12.138;2022-10-01T03:42:54;99858.09;;;14.08;56.80
12182;BME280;6154;51.550;12.138;2022-10-01T03:45:23;99860.38;;;14.01;57.08
12182;BME280;6154;51.550;12.138;2022-10-01T03:47:51;99852.53;;;14.00;57.06
12182;BME280;6154;51.550;12.138;2022-10-01T03:50:20;99853.03;;;13.94;58.31
12182;BME280;6154;51.550;12.138;2022-10-01T03:52:49;99850.84;;;13.99;57.49
12182;BME280;6154;51.550;12.138;2022-10-01T03:55:17;99846.22;;;14.01;57.45
12182;BME280;6154;51.550;12.138;2022-10-01T03:57:46;99839.09;;;13.90;59.37
12182;BME280;6154;51.550;12.138;2022-10-01T04:00:14;99841.41;;;14.06;58.09
12182;BME280;6154;51.550;12.138;2022-10-01T04:02:44;99834.41;;;14.05;58.53
12182;BME280;6154;51.550;12.138;2022-10-01T04:05:12;99836.34;;;14.03;58.93
12182;BME280;6154;51.550;12.138;2022-10-01T04:07:40;99821.34;;;14.13;58.59
12182;BME280;6154;51.550;12.138;2022-10-01T04:10:10;99827.63;;;14.23;58.98
12182;BME280;6154;51.550;12.138;2022-10-01T04:12:38;99821.06;;;14.27;59.20
12182;BME280;6154;51.550;12.138;2022-10-01T04:15:07;99821.19;;;14.37;58.32
12182;BME280;6154;51.550;12.138;2022-10-01T04:17:36;99818.53;;;14.48;58.14
12182;BME280;6154;51.550;12.138;2022-10-01T04:20:08;99810.63;;;14.58;57.86
12182;BME280;6154;51.550;12.138;2022-10-01T04:22:38;99808.69;;;14.60;58.09
12182;BME280;6154;51.550;12.138;2022-10-01T04:25:10;99808.19;;;14.66;57.79
12182;BME280;6154;51.550;12.138;2022-10-01T04:27:39;99801.19;;;14.65;58.44
12182;BME280;6154;51.550;12.138;2022-10-01T04:30:09;99806.84;;;14.72;57.72
12182;BME280;6154;51.550;12.138;2022-10-01T04:32:37;99794.75;;;14.68;58.39
12182;BME280;6154;51.550;12.138;2022-10-01T04:35:06;99800.16;;;14.77;57.93
12182;BME280;6154;51.550;12.138;2022-10-01T04:37:37;99793.47;;;14.83;57.46
12182;BME280;6154;51.550;12.138;2022-10-01T04:40:06;99800.16;;;14.77;58.65
12182;BME280;6154;51.550;12.138;2022-10-01T04:42:39;99797.00;;;14.83;57.62
12182;BME280;6154;51.550;12.138;2022-10-01T04:45:09;99803.94;;;14.75;58.27
12182;BME280;6154;51.550;12.138;2022-10-01T04:47:38;99806.22;;;14.79;57.89
12182;BME280;6154;51.550;12.138;2022-10-01T04:50:13;99802.56;;;14.80;57.97
12182;BME280;6154;51.550;12.138;2022-10-01T04:52:45;99802.22;;;14.85;57.71
12182;BME280;6154;51.550;12.138;2022-10-01T04:55:14;99806.34;;;14.78;58.46
12182;BME280;6154;51.550;12.138;2022-10-01T04:57:44;99813.00;;;14.83;58.04
12182;BME280;6154;51.550;12.138;2022-10-01T05:00:14;99808.81;;;14.90;57.79
12182;BME280;6154;51.550;12.138;2022-10-01T05:02:43;99810.06;;;14.86;58.42
12182;BME280;6154;51.550;12.138;2022-10-01T05:05:12;99806.78;;;14.94;58.08
12182;BME280;6154;51.550;12.138;2022-10-01T05:07:41;99804.94;;;14.94;58.07
12182;BME280;6154;51.550;12.138;2022-10-01T05:10:11;99802.03;;;14.98;58.72
12182;BME280;6154;51.550;12.138;2022-10-01T05:12:39;99798.44;;;14.87;58.82
12182;BME280;6154;51.550;12.138;2022-10-01T05:15:10;99789.22;;;15.12;57.54
12182;BME280;6154;51.550;12.138;2022-10-01T05:17:38;99794.94;;;15.08;58.06
12182;BME280;6154;51.550;12.138;2022-10-01T05:20:09;99786.44;;;15.14;57.54
12182;BME280;6154;51.550;12.138;2022-10-01T05:22:42;99786.09;;;15.07;57.90
12182;BME280;6154;51.550;12.138;2022-10-01T05:25:11;99776.22;;;15.19;57.60
12182;BME280;6154;51.550;12.138;2022-10-01T05:27:40;99777.84;;;15.10;58.59
12182;BME280;6154;51.550;12.138;2022-10-01T05:30:12;99774.06;;;15.13;58.58
12182;BME280;6154;51.550;12.138;2022-10-01T05:32:53;99770.19;;;15.17;58.84
12182;BME280;6154;51.550;12.138;2022-10-01T05:35:22;99771.87;;;15.18;59.06
12182;BME280;6154;51.550;12.138;2022-10-01T05:37:55;99764.84;;;15.38;57.79
12182;BME280;6154;51.550;12.138;2022-10-01T05:40:24;99762.38;;;15.25;58.66
12182;BME280;6154;51.550;12.138;2022-10-01T05:42:54;99759.16;;;15.52;57.43
12182;BME280;6154;51.550;12.138;2022-10-01T05:45:26;99754.44;;;15.56;57.53
12182;BME280;6154;51.550;12.138;2022-10-01T05:47:58;99756.38;;;15.53;58.13
12182;BME280;6154;51.550;12.138;2022-10-01T05:50:27;99755.41;;;15.55;58.12
12182;BME280;6154;51.550;12.138;2022-10-01T05:52:57;99755.34;;;15.66;57.65
12182;BME280;6154;51.550;12.138;2022-10-01T05:55:26;99746.09;;;15.70;57.45
12182;BME280;6154;51.550;12.138;2022-10-01T05:58:00;99744.25;;;15.70;57.40
12182;BME280;6154;51.550;12.138;2022-10-01T06:00:31;99727.81;;;15.65;57.68
12182;BME280;6154;51.550;12.138;2022-10-01T06:03:00;99731.47;;;15.64;58.17
12182;BME280;6154;51.550;12.138;2022-10-01T06:05:30;99720.25;;;15.70;57.85
12182;BME280;6154;51.550;12.138;2022-10-01T06:07:59;99717.44;;;15.72;57.94
12182;BME280;6154;51.550;12.138;2022-10-01T06:10:27;99714.38;;;15.76;57.78
12182;BME280;6154;51.550;12.138;2022-10-01T06:12:57;99717.19;;;15.75;58.09
12182;BME280;6154;51.550;12.138;2022-10-01T06:15:27;99701.03;;;15.76;58.49
12182;BME280;6154;51.550;12.138;2022-10-01T06:18:00;99701.75;;;15.78;58.42
12182;BME280;6154;51.550;12.138;2022-10-01T06:20:29;99703.84;;;15.75;58.52
12182;BME280;6154;51.550;12.138;2022-10-01T06:22:57;99695.47;;;15.89;58.21
12182;BME280;6154;51.550;12.138;2022-10-01T06:25:26;99691.66;;;15.92;57.89
12182;BME280;6154;51.550;12.138;2022-10-01T06:27:58;99688.59;;;15.96;57.87
12182;BME280;6154;51.550;12.138;2022-10-01T06:30:28;99682.56;;;15.94;58.05
12182;BME280;6154;51.550;12.138;2022-10-01T06:33:00;99687.50;;;16.08;57.55
12182;BME280;6154;51.550;12.138;2022-10-01T06:35:29;99688.34;;;16.09;57.65
12182;BME280;6154;51.550;12.138;2022-10-01T06:37:58;99686.50;;;16.09;57.84
12182;BME280;6154;51.550;12.138;2022-10-01T06:40:28;99680.63;;;16.16;57.23
12182;BME280;6154;51.550;12.138;2022-10-01T06:42:57;99679.94;;;16.14;57.68
12182;BME280;6154;51.550;12.138;2022-10-01T06:45:26;99671.22;;;16.21;57.32
12182;BME280;6154;51.550;12.138;2022-10-01T06:47:56;99675.69;;;16.21;57.57
12182;BME280;6154;51.550;12.138;2022-10-01T06:50:27;99669.66;;;16.19;57.76
12182;BME280;6154;51.550;12.138;2022-10-01T06:52:56;99664.31;;;16.19;57.79
12182;BME280;6154;51.550;12.138;2022-10-01T06:55:27;99663.78;;;16.15;58.03
12182;BME280;6154;51.550;12.138;2022-10-01T06:57:57;99667.31;;;16.35;57.27
12182;BME280;6154;51.550;12.138;2022-10-01T07:00:26;99665.19;;;16.38;57.10
12182;BME280;6154;51.550;12.138;2022-10-01T07:02:55;99653.50;;;16.30;57.68
12182;BME280;6154;51.550;12.138;2022-10-01T07:05:24;99667.31;;;16.35;57.64
12182;BME280;6154;51.550;12.138;2022-10-01T07:07:54;99661.38;;;16.31;57.88
12182;BME280;6154;51.550;12.138;2022-10-01T07:10:22;99653.81;;;16.27;57.76
12182;BME280;6154;51.550;12.138;2022-10-01T07:12:51;99655.34;;;16.39;57.46
12182;BME280;6154;51.550;12.138;2022-10-01T07:15:20;99648.47;;;16.36;57.66
12182;BME280;6154;51.550;12.138;2022-10-01T07:17:50;99646.34;;;16.40;57.69
12182;BME280;6154;51.550;12.138;2022-10-01T07:20:19;99648.72;;;16.43;57.64
12182;BME280;6154;51.550;12.138;2022-10-01T07:22:48;99642.00;;;16.39;57.66
12182;BME280;6154;51.550;12.138;2022-10-01T07:25:17;99645.66;;;16.48;57.34
12182;BME280;6154;51.550;12.138;2022-10-01T07:27:46;99643.97;;;16.56;57.19
12182;BME280;6154;51.550;12.138;2022-10-01T07:30:14;99642.13;;;16.47;57.54
12182;BME280;6154;51.550;12.138;2022-10-01T07:32:42;99640.72;;;16.53;57.64
12182;BME280;6154;51.550;12.138;2022-10-01T07:35:10;99636.25;;;16.44;58.01
12182;BME280;6154;51.550;12.138;2022-10-01T07:37:39;99637.78;;;16.46;58.09
12182;BME280;6154;51.550;12.138;2022-10-01T07:40:08;99635.94;;;16.56;57.77
12182;BME280;6154;51.550;12.138;2022-10-01T07:42:38;99641.28;;;16.56;57.62
12182;BME280;6154;51.550;12.138;2022-10-01T07:45:08;99628.63;;;16.49;58.03
12182;BME280;6154;51.550;12.138;2022-10-01T07:47:36;99630.75;;;16.55;58.01
12182;BME280;6154;51.550;12.138;2022-10-01T07:50:05;99623.72;;;16.44;58.38
12182;BME280;6154;51.550;12.138;2022-10-01T07:52:33;99622.84;;;16.63;58.05
12182;BME280;6154;51.550;12.138;2022-10-01T07:55:02;99621.16;;;16.62;58.58
12182;BME280;6154;51.550;12.138;2022-10-01T07:57:31;99613.88;;;16.74;58.03
12182;BME280;6154;51.550;12.138;2022-10-01T08:00:01;99599.53;;;16.75;58.00
12182;BME280;6154;51.550;12.138;2022-10-01T08:02:38;99601.75;;;16.60;58.65
12182;BME280;6154;51.550;12.138;2022-10-01T08:05:07;99585.44;;;16.63;58.84
12182;BME280;6154;51.550;12.138;2022-10-01T08:07:45;99589.66;;;16.65;58.98
12182;BME280;6154;51.550;12.138;2022-10-01T08:10:15;99572.66;;;16.66;58.79
12182;BME280;6154;51.550;12.138;2022-10-01T08:12:43;99564.63;;;16.66;59.11
12182;BME280;6154;51.550;12.138;2022-10-01T08:15:14;99564.06;;;16.73;58.68
12182;BME280;6154;51.550;12.138;2022-10-01T08:17:43;99560.00;;;16.69;59.39
12182;BME280;6154;51.550;12.138;2022-10-01T08:20:12;99556.31;;;16.79;58.80
12182;BME280;6154;51.550;12.138;2022-10-01T08:22:42;99554.53;;;16.70;59.09
12182;BME280;6154;51.550;12.138;2022-10-01T08:25:10;99547.06;;;16.74;59.16
12182;BME280;6154;51.550;12.138;2022-10-01T08:27:38;99541.00;;;16.72;59.29
12182;BME280;6154;51.550;12.138;2022-10-01T08:30:07;99548.03;;;16.73;59.42
12182;BME280;6154;51.550;12.138;2022-10-01T08:32:37;99540.03;;;16.73;59.64
12182;BME280;6154;51.550;12.138;2022-10-01T08:35:06;99534.81;;;16.71;59.43
12182;BME280;6154;51.550;12.138;2022-10-01T08:37:34;99523.25;;;16.80;59.39
12182;BME280;6154;51.550;12.138;2022-10-01T08:40:03;99517.62;;;16.83;59.35
12182;BME280;6154;51.550;12.138;2022-10-01T08:42:47;99531.44;;;16.79;59.57
12182;BME280;6154;51.550;12.138;2022-10-01T08:45:21;99521.87;;;16.76;60.27
12182;BME280;6154;51.550;12.138;2022-10-01T08:47:57;99519.75;;;16.80;59.97
12182;BME280;6154;51.550;12.138;2022-10-01T08:50:35;99509.47;;;16.85;59.80
12182;BME280;6154;51.550;12.138;2022-10-01T08:53:26;99505.13;;;16.84;60.13
12182;BME280;6154;51.550;12.138;2022-10-01T08:55:57;99504.97;;;16.85;60.23
12182;BME280;6154;51.550;12.138;2022-10-01T08:58:31;99501.53;;;16.93;59.89
12182;BME280;6154;51.550;12.138;2022-10-01T09:01:04;99509.28;;;16.96;59.96
12182;BME280;6154;51.550;12.138;2022-10-01T09:03:33;99504.94;;;16.95;59.80
12182;BME280;6154;51.550;12.138;2022-10-01T09:06:11;99518.72;;;16.90;59.76
12182;BME280;6154;51.550;12.138;2022-10-01T09:08:53;99516.06;;;16.90;59.96
12182;BME280;6154;51.550;12.138;2022-10-01T09:11:42;99527.84;;;16.98;60.37
12182;BME280;6154;51.550;12.138;2022-10-01T09:14:25;99530.66;;;16.96;61.16
12182;BME280;6154;51.550;12.138;2022-10-01T09:17:04;99531.53;;;16.87;61.37
12182;BME280;6154;51.550;12.138;2022-10-01T09:19:56;99529.94;;;17.04;60.26
12182;BME280;6154;51.550;12.138;2022-10-01T09:22:33;99534.34;;;16.95;61.46
12182;BME280;6154;51.550;12.138;2022-10-01T09:25:24;99544.34;;;16.83;61.79
12182;BME280;6154;51.550;12.138;2022-10-01T09:27:59;99542.09;;;16.88;62.56
12182;BME280;6154;51.550;12.138;2022-10-01T09:30:29;99540.94;;;16.91;62.19
12182;BME280;6154;51.550;12.138;2022-10-01T09:33:02;99536.69;;;16.98;61.41
12182;BME280;6154;51.550;12.138;2022-10-01T09:35:40;99549.66;;;16.93;61.62
12182;BME280;6154;51.550;12.138;2022-10-01T09:38:16;99540.91;;;17.01;61.46
12182;BME280;6154;51.550;12.138;2022-10-01T09:40:50;99542.31;;;17.05;61.40
12182;BME280;6154;51.550;12.138;2022-10-01T09:43:21;99527.66;;;17.09;61.73
12182;BME280;6154;51.550;12.138;2022-10-01T09:45:50;99520.63;;;17.08;61.22
12182;BME280;6154;51.550;12.138;2022-10-01T09:48:24;99521.63;;;17.07;61.89
12182;BME280;6154;51.550;12.138;2022-10-01T09:50:57;99521.47;;;17.08;61.61
12182;BME280;6154;51.550;12.138;2022-10-01T09:53:33;99524.72;;;17.02;62.60
12182;BME280;6154;51.550;12.138;2022-10-01T09:56:11;99509.09;;;17.07;62.87
12182;BME280;6154;51.550;12.138;2022-10-01T09:58:44;99507.94;;;17.10;62.55
12182;BME280;6154;51.550;12.138;2022-10-01T10:01:19;99503.59;;;17.09;63.54
12182;BME280;6154;51.550;12.138;2022-10-01T10:03:54;99505.69;;;17.15;63.00
12182;BME280;6154;51.550;12.138;2022-10-01T10:06:26;99505.78;;;17.13;62.84
12182;BME280;6154;51.550;12.138;2022-10-01T10:08:56;99500.84;;;17.18;62.36
12182;BME280;6154;51.550;12.138;2022-10-01T10:11:27;99508.97;;;17.27;62.03
12182;BME280;6154;51.550;12.138;2022-10-01T10:13:57;99502.22;;;17.22;62.32
12182;BME280;6154;51.550;12.138;2022-10-01T10:16:28;99504.44;;;17.09;63.19
12182;BME280;6154;51.550;12.138;2022-10-01T10:19:00;99507.63;;;17.13;63.24
12182;BME280;6154;51.550;12.138;2022-10-01T10:21:32;99504.00;;;17.14;63.10
12182;BME280;6154;51.550;12.138;2022-10-01T10:24:03;99504.13;;;17.12;63.07
12182;BME280;6154;51.550;12.138;2022-10-01T10:26:32;99501.94;;;16.98;63.86
12182;BME280;6154;51.550;12.138;2022-10-01T10:29:04;99497.84;;;17.04;63.63
12182;BME280;6154;51.550;12.138;2022-10-01T10:31:36;99499.81;;;17.02;63.37
12182;BME280;6154;51.550;12.138;2022-10-01T10:34:14;99500.59;;;16.94;64.30
12182;BME280;6154;51.550;12.138;2022-10-01T10:36:45;99493.56;;;17.11;63.51
12182;BME280;6154;51.550;12.138;2022-10-01T10:39:18;99490.69;;;17.04;63.92
12182;BME280;6154;51.550;12.138;2022-10-01T10:41:50;99502.28;;;17.13;63.28
12182;BME280;6154;51.550;12.138;2022-10-01T10:44:21;99503.47;;;17.01;63.62
12182;BME280;6154;51.550;12.138;2022-10-01T10:46:52;99495.25;;;17.12;62.98
12182;BME280;6154;51.550;12.138;2022-10-01T10:49:24;99497.09;;;17.11;63.20
12182;BME280;6154;51.550;12.138;2022-10-01T10:51:56;99481.41;;;17.26;62.69
12182;BME280;6154;51.550;12.138;2022-10-01T10:54:30;99482.28;;;17.17;63.20
12182;BME280;6154;51.550;12.138;2022-10-01T10:57:00;99478.88;;;17.24;63.75
12182;BME280;6154;51.550;12.138;2022-10-01T10:59:30;99465.69;;;17.13;64.26
12182;BME280;6154;51.550;12.138;2022-10-01T11:02:00;99465.56;;;17.33;63.58
12182;BME280;6154;51.550;12.138;2022-10-01T11:04:37;99461.94;;;17.34;63.54
12182;BME280;6154;51.550;12.138;2022-10-01T11:07:09;99466.50;;;17.41;64.00
12182;BME280;6154;51.550;12.138;2022-10-01T11:09:55;99458.47;;;17.41;63.65
12182;BME280;6154;51.550;12.138;2022-10-01T11:12:38;99463.75;;;17.51;63.99
12182;BME280;6154;51.550;12.138;2022-10-01T11:15:28;99457.41;;;17.52;63.65
12182;BME280;6154;51.550;12.138;2022-10-01T11:18:23;99459.47;;;17.58;64.37
12182;BME280;6154;51.550;12.138;2022-10-01T11:21:03;99454.44;;;17.55;64.39
12182;BME280;6154;51.550;12.138;2022-10-01T11:23:50;99465.91;;;17.65;63.37
12182;BME280;6154;51.550;12.138;2022-10-01T11:26:36;99461.94;;;17.87;63.71
12182;BME280;6154;51.550;12.138;2022-10-01T11:29:17;99458.34;;;17.78;63.45
12182;BME280;6154;51.550;12.138;2022-10-01T11:31:53;99453.91;;;17.87;63.59
12182;BME280;6154;51.550;12.138;2022-10-01T11:34:38;99444.69;;;18.07;62.96
12182;BME280;6154;51.550;12.138;2022-10-01T11:37:21;99444.47;;;18.01;63.07
12182;BME280;6154;51.550;12.138;2022-10-01T11:39:57;99454.50;;;17.99;62.90
12182;BME280;6154;51.550;12.138;2022-10-01T11:42:29;99444.03;;;18.14;62.65
12182;BME280;6154;51.550;12.138;2022-10-01T11:45:04;99449.06;;;18.08;62.41
12182;BME280;6154;51.550;12.138;2022-10-01T11:47:40;99448.34;;;18.32;62.04
12182;BME280;6154;51.550;12.138;2022-10-01T11:50:15;99454.66;;;18.23;61.84
12182;BME280;6154;51.550;12.138;2022-10-01T11:52:49;99441.94;;;18.51;61.32
12182;BME280;6154;51.550;12.138;2022-10-01T11:55:22;99446.63;;;18.49;61.24
12182;BME280;6154;51.550;12.138;2022-10-01T11:58:15;99447.41;;;18.67;60.98
12182;BME280;6154;51.550;12.138;2022-10-01T12:01:06;99446.88;;;18.64;60.62
12182;BME280;6154;51.550;12.138;2022-10-01T12:03:47;99452.25;;;18.64;60.43
12182;BME280;6154;51.550;12.138;2022-10-01T12:06:19;99459.91;;;18.59;59.98
12182;BME280;6154;51.550;12.138;2022-10-01T12:08:58;99464.06;;;18.27;60.48
12182;BME280;6154;51.550;12.138;2022-10-01T12:11:34;99450.34;;;18.56;60.31
12182;BME280;6154;51.550;12.138;2022-10-01T12:14:09;99446.59;;;18.67;59.69
12182;BME280;6154;51.550;12.138;2022-10-01T12:16:42;99446.34;;;18.86;59.66
12182;BME280;6154;51.550;12.138;2022-10-01T12:19:16;99448.75;;;19.14;59.09
12182;BME280;6154;51.550;12.138;2022-10-01T12:21:50;99460.97;;;19.08;59.07
12182;BME280;6154;51.550;12.138;2022-10-01T12:24:26;99450.19;;;18.92;58.86
12182;BME280;6154;51.550;12.138;2022-10-01T12:27:08;99458.47;;;19.07;58.99
12182;BME280;6154;51.550;12.138;2022-10-01T12:29:46;99456.25;;;18.94;58.77
12182;BME280;6154;51.550;12.138;2022-10-01T12:32:24;99460.91;;;18.92;59.09
12182;BME280;6154;51.550;12.138;2022-10-01T12:35:04;99454.69;;;18.83;59.19
12182;BME280;6154;51.550;12.138;2022-10-01T12:37:55;99461.59;;;18.60;59.25
12182;BME280;6154;51.550;12.138;2022-10-01T12:40:32;99457.59;;;18.64;59.22
12182;BME280;6154;51.550;12.138;2022-10-01T12:46:12;99466.78;;;18.87;59.44
12182;BME280;6154;51.550;12.138;2022-10-01T12:48:48;99458.69;;;18.79;59.36
12182;BME280;6154;51.550;12.138;2022-10-01T12:51:42;99458.03;;;18.77;59.54
12182;BME280;6154;51.550;12.138;2022-10-01T12:54:34;99467.56;;;18.80;59.25
12182;BME280;6154;51.550;12.138;2022-10-01T12:57:19;99470.13;;;18.89;59.17
12182;BME280;6154;51.550;12.138;2022-10-01T13:00:02;99466.41;;;18.82;59.50
12182;BME280;6154;51.550;12.138;2022-10-01T13:05:33;99477.53;;;19.04;59.12
12182;BME280;6154;51.550;12.138;2022-10-01T13:08:23;99479.25;;;19.05;59.04
12182;BME280;6154;51.550;12.138;2022-10-01T13:11:00;99487.81;;;19.08;58.87
12182;BME280;6154;51.550;12.138;2022-10-01T13:13:32;99491.00;;;19.12;58.87
12182;BME280;6154;51.550;12.138;2022-10-01T13:16:07;99487.09;;;18.98;59.08
12182;BME280;6154;51.550;12.138;2022-10-01T13:18:45;99483.22;;;18.92;59.02
12182;BME280;6154;51.550;12.138;2022-10-01T13:21:24;99484.03;;;18.93;59.08
12182;BME280;6154;51.550;12.138;2022-10-01T13:24:02;99482.06;;;18.95;59.53
12182;BME280;6154;51.550;12.138;2022-10-01T13:26:39;99480.38;;;18.94;59.29
12182;BME280;6154;51.550;12.138;2022-10-01T13:29:22;99484.63;;;19.13;59.12
12182;BME280;6154;51.550;12.138;2022-10-01T13:31:57;99469.84;;;19.01;59.09
12182;BME280;6154;51.550;12.138;2022-10-01T13:34:49;99468.72;;;19.19;58.95
12182;BME280;6154;51.550;12.138;2022-10-01T13:37:34;99469.75;;;19.27;58.84